A- A+ FrançaisEnglishEspañol中国

Services sur Internet Soldes sur Internet Des idées de cadeaux Météo Météo aéro

La météo à : Autours de vous Perpignan-RivesalterTarbes-Lourdes-PyrénéesVillacoublay-Velizy Ajaccio-Napoléon-Bonaparte

manche à air

La météo aéronautique pour les pilotes, la préparation du vol avec les METAR (METeorological Aerodrome Report, message d'observation des conditions météorologiques pour l'aviation) et Les TAF (Terminal Aerodrome Forecast : message de prévision à court terme des conditions météorologiques pour l'aviation). Et les autres ressources comme les VAC (Visual Approch Chart) et les NOTAM (Notice To Airman) pour préprer les vols.

Aéroport Ibadan (Nigéria) / OACI DNIB/ IATA IBA

L'altitude de l'aéroport Ibadan est de 221 m = 725 ft. Il est situé à proximité de Ibadan (Nigéria). La météo générale à 5 jours est disponible pour Ibadan situé à 9.5 km.

METAR de l'aéroport Ibadan - DNIB

DNIB 291600Z 18005KT 9999 SCT012 30/22 Q1010

Décodage du METAR de l'aéroport Ibadan (NG)

METAR émis par DNIB le dimanche 29 septembre 2019 à 16:00 heure TU. Attention ce METAR est obsolète car il a été émis il y a 15 heure et 14 minutes.

La visibilité est de supérieure à 10 km = supérieure à 6.2 sm.

La température est de 30°C = 86 °F et le point rosée est de 22°C = 72 °F . Ce qui correspond à 62% d'humidité relative.

Le QNH est de 1010 hPa = 29.83 inHg

Vent de 5 kt = 9 km/h, orienté à 180°.

Nuages : Nuages épars à 1200 ft = 370 mètres.

TAF de l'aéroport Ibadan - DNIB

DNIB 291100Z 2912/3018 23010KT 9999 BKN012 TEMPO 2915/2919 SCT012 FEW020CB TEMPO 2916/2919 TS BKN009 FEW019CB BECMG 2919/2921 VRB02KT SCT010

DNIB 291100Z 2912/3018 23010KT 9999 couverture nuageuse fragmentée à 012 temporairement 2915/2919 nuages épars à 012 quelques nuages à 020CB temporairement 2916/2919 orage couverture nuageuse fragmentée à 009 quelques nuages à 019CB devenant 2919/2921 VRB02KT nuages épars à 010

Aéroport à proximité de Ibadan

Météo générale à 5 jours à Ibadan (9.5 km)Aéroport Oshogbo (73 km)Aéroport Lagos Murtala Muhammed (113 km)Aéroport Ilorin (133 km)Aéroport Akure (146 km)Aéroport Save (182 km)Aéroport Cotonou (208 km)

Vue aérienne de l'aéroport Ibadan

NOTAM de l'aéroport Ibadan

Les NOTAM sont fournis sans aucune garantie de leur actualité. Le pilote est le seul responsable de la vérification de sa validité avant de l'utiliser opérationnellement pour préparer un vol ou l'utiliser lors de sa navigation.

Pas de NOTAM

Sources des données